Time;durP1;ratioP1;P1;durP2;ratioP2;P2;SDS_P1;SDS_P2;PMS_P1;PMS_P2;Temp;Humidity;BMP_temperature;BMP_pressure;BME280_temperature;BME280_humidity;BME280_pressure;Samples;Min_cycle;Max_cycle;Signal;HPM_P1;HPM_P2
2023/01/16 00:01:51;;;;;;;2.40;1.60;;;;;;;-0.50;82.59;98417.56;105653;1259;62473;-24
2023/01/16 00:04:18;;;;;;;2.50;1.90;;;;;;;-0.67;82.68;98410.67;105694;1254;75229;-25
2023/01/16 00:06:45;;;;;;;2.70;2.10;;;;;;;-1.03;84.32;98415.35;105783;1253;75080;-25
2023/01/16 00:09:12;;;;;;;3.10;1.50;;;;;;;-0.63;84.08;98408.95;105762;1257;74608;-25
2023/01/16 00:11:39;;;;;;;3.30;1.90;;;;;;;-0.13;82.21;98396.61;105904;1256;62556;-24
2023/01/16 00:14:06;;;;;;;3.10;1.90;;;;;;;-0.26;81.53;98395.81;105633;1258;62553;-25
2023/01/16 00:16:33;;;;;;;2.90;1.50;;;;;;;-0.43;82.00;98409.41;105573;1254;76573;-25
2023/01/16 00:19:00;;;;;;;4.20;3.00;;;;;;;-0.68;83.17;98407.98;105491;1254;76746;-25
2023/01/16 00:21:28;;;;;;;2.60;1.70;;;;;;;-0.71;83.43;98402.31;105676;1254;74067;-25
2023/01/16 00:23:56;;;;;;;2.50;1.70;;;;;;;-0.21;82.56;98397.30;105830;1254;61145;-25
2023/01/16 00:26:23;;;;;;;4.00;2.50;;;;;;;-0.07;81.51;98393.24;105702;1254;61135;-25
2023/01/16 00:28:51;;;;;;;2.80;2.10;;;;;;;-0.21;81.60;98382.29;105770;1259;76328;-25
2023/01/16 00:31:18;;;;;;;1.80;1.60;;;;;;;-0.39;82.03;98377.67;105866;1255;76441;-24
2023/01/16 00:33:45;;;;;;;3.60;1.40;;;;;;;-0.60;82.79;98379.85;105954;1254;74993;-25
2023/01/16 00:36:12;;;;;;;2.20;1.50;;;;;;;-0.43;82.90;98371.23;105738;1254;63704;-25
2023/01/16 00:38:39;;;;;;;3.10;1.70;;;;;;;0.05;81.56;98363.82;105720;1254;62765;-25
2023/01/16 00:41:06;;;;;;;3.80;2.50;;;;;;;0.08;80.99;98362.83;105787;1256;74990;-25
2023/01/16 00:43:33;;;;;;;4.10;2.20;;;;;;;-0.09;80.91;98358.68;105679;1254;75667;-25
2023/01/16 00:46:00;;;;;;;4.10;2.50;;;;;;;-0.33;81.97;98354.36;105735;1254;74145;-24
2023/01/16 00:48:27;;;;;;;2.50;1.80;;;;;;;-0.55;82.64;98351.48;105731;1256;62088;-25
2023/01/16 00:50:54;;;;;;;5.30;2.90;;;;;;;-0.33;83.07;98357.97;105771;1256;62428;-24
2023/01/16 00:53:21;;;;;;;3.00;1.80;;;;;;;-0.12;82.08;98360.38;105727;1256;74045;-25
2023/01/16 00:55:51;;;;;;;3.10;1.80;;;;;;;-0.22;82.27;98360.16;105707;1258;76736;-25
2023/01/16 00:58:18;;;;;;;4.10;2.40;;;;;;;-0.40;82.79;98357.77;105702;1255;75315;-25
2023/01/16 01:00:45;;;;;;;3.30;2.40;;;;;;;-0.47;82.99;98355.54;105527;1256;62174;-25
2023/01/16 01:03:12;;;;;;;3.20;2.20;;;;;;;-0.43;83.42;98351.46;105582;1259;62798;-25
2023/01/16 01:05:39;;;;;;;2.60;2.00;;;;;;;-0.07;82.43;98351.05;105753;1254;76388;-25
2023/01/16 01:08:06;;;;;;;3.70;2.50;;;;;;;0.03;81.82;98347.69;105653;1257;75741;-25
2023/01/16 01:10:35;;;;;;;3.50;2.30;;;;;;;-0.03;81.58;98345.45;105489;1254;74883;-25
2023/01/16 01:13:02;;;;;;;1.90;1.70;;;;;;;-0.25;82.25;98339.67;105569;1254;61149;-24
2023/01/16 01:15:29;;;;;;;3.60;2.10;;;;;;;-0.36;82.75;98338.48;105664;1254;61703;-24
2023/01/16 01:17:57;;;;;;;4.80;2.80;;;;;;;-0.08;82.62;98332.88;105694;1256;75312;-25
2023/01/16 01:20:24;;;;;;;11.00;3.20;;;;;;;0.02;81.89;98326.90;105619;1252;75802;-25
2023/01/16 01:22:51;;;;;;;4.10;2.30;;;;;;;-0.04;81.96;98331.64;105742;1251;74259;-25
2023/01/16 01:25:18;;;;;;;3.40;2.20;;;;;;;-0.30;82.87;98330.19;105669;1254;61905;-25
2023/01/16 01:27:45;;;;;;;6.00;2.60;;;;;;;-0.42;83.32;98329.02;105697;1251;61048;-25
2023/01/16 01:30:12;;;;;;;3.30;1.90;;;;;;;-0.20;83.49;98329.19;105592;1251;76291;-24
2023/01/16 01:32:39;;;;;;;2.90;2.00;;;;;;;0.27;82.32;98329.41;104418;1251;1499450;-25
2023/01/16 01:35:07;;;;;;;2.90;2.20;;;;;;;0.24;81.36;98318.83;105696;1258;75444;-25
2023/01/16 01:37:34;;;;;;;3.70;2.50;;;;;;;0.03;81.71;98319.00;105644;1259;61176;-25
2023/01/16 01:40:04;;;;;;;4.00;1.70;;;;;;;-0.17;82.39;98315.55;105789;1251;61132;-25
2023/01/16 01:42:43;;;;;;;4.00;2.90;;;;;;;-0.33;82.91;98313.08;105701;1251;76312;-25
2023/01/16 01:45:26;;;;;;;4.00;2.10;;;;;;;0.04;82.56;98321.52;105599;1251;75733;-25
2023/01/16 01:48:08;;;;;;;5.20;2.80;;;;;;;0.31;81.84;98322.23;105695;1262;75234;-25
2023/01/16 01:50:36;;;;;;;2.30;1.90;;;;;;;0.20;81.46;98318.69;105627;1259;61153;-25
2023/01/16 01:53:27;;;;;;;3.20;2.40;;;;;;;-0.01;82.24;98315.79;105632;1258;61830;-25
2023/01/16 01:55:54;;;;;;;4.90;2.70;;;;;;;-0.30;83.37;98319.43;105651;1251;75851;-25
2023/01/16 01:58:22;;;;;;;2.90;1.90;;;;;;;0.04;83.07;98321.18;105518;1260;76731;-24
2023/01/16 02:00:53;;;;;;;2.70;1.80;;;;;;;0.37;81.45;98327.04;105595;1254;75225;-24
2023/01/16 02:03:28;;;;;;;3.80;2.20;;;;;;;0.34;81.42;98326.34;105385;1252;62715;-25
2023/01/16 02:05:56;;;;;;;2.30;1.80;;;;;;;0.08;81.99;98328.35;105707;1258;62589;-25
2023/01/16 02:08:26;;;;;;;3.10;2.30;;;;;;;-0.06;82.37;98321.85;105767;1251;76551;-25
2023/01/16 02:11:25;;;;;;;1.80;1.50;;;;;;;-0.09;82.72;98325.23;105732;1252;76755;-25
2023/01/16 02:14:00;;;;;;;3.80;3.00;;;;;;;0.30;81.93;98325.36;105718;1259;73336;-25
2023/01/16 02:19:27;;;;;;;3.40;2.20;;;;;;;0.37;81.15;98316.44;105729;1259;62390;-25
2023/01/16 02:22:16;;;;;;;3.30;1.90;;;;;;;0.05;81.81;98313.10;105682;1254;74025;-25
2023/01/16 02:24:51;;;;;;;2.10;1.50;;;;;;;-0.15;82.93;98310.17;105579;1258;74482;-25
2023/01/16 02:27:44;;;;;;;3.50;2.00;;;;;;;-0.01;83.24;98309.83;105549;1254;74033;-25
2023/01/16 02:30:34;;;;;;;3.20;2.20;;;;;;;0.45;81.25;98310.58;105568;1259;63152;-25
2023/01/16 02:33:05;;;;;;;4.30;2.20;;;;;;;0.27;81.39;98306.87;105354;1253;63006;-25
2023/01/16 02:35:44;;;;;;;4.60;2.80;;;;;;;0.17;81.87;98304.87;105600;1254;76608;-25
2023/01/16 02:38:26;;;;;;;3.80;2.20;;;;;;;-0.08;82.33;98304.20;105628;1258;75720;-25
2023/01/16 02:41:21;;;;;;;2.60;2.00;;;;;;;0.07;82.96;98302.09;105464;1256;74122;-24
2023/01/16 02:43:51;;;;;;;4.50;2.40;;;;;;;0.48;81.47;98299.15;105782;1256;62732;-25
2023/01/16 02:46:25;;;;;;;2.50;1.90;;;;;;;0.51;80.75;98293.40;105778;1254;61731;-25
2023/01/16 02:49:07;;;;;;;5.10;2.60;;;;;;;0.26;81.32;98294.66;105624;1256;76257;-25
2023/01/16 02:51:49;;;;;;;6.00;3.00;;;;;;;0.06;82.03;98296.51;105677;1254;75807;-25
2023/01/16 02:54:22;;;;;;;4.10;2.20;;;;;;;0.06;82.57;98300.09;105675;1252;73084;-25
2023/01/16 02:56:51;;;;;;;;;;;;;;;0.50;81.37;98300.79;105631;1260;62601;-25
2023/01/16 02:59:18;;;;;;;3.60;2.00;;;;;;;0.37;81.33;98303.13;105825;1254;61287;-25
2023/01/16 03:01:49;;;;;;;3.80;2.20;;;;;;;0.10;82.29;98297.86;105693;1258;75697;-24
2023/01/16 03:04:35;;;;;;;2.80;2.00;;;;;;;-0.04;82.95;98292.74;105507;1254;76613;-25
2023/01/16 03:07:18;;;;;;;2.40;1.80;;;;;;;-0.01;83.25;98289.69;105657;1258;75170;-25
2023/01/16 03:10:33;;;;;;;4.10;2.90;;;;;;;0.60;81.70;98285.23;105660;1259;61571;-25
2023/01/16 03:13:22;;;;;;;3.10;2.40;;;;;;;0.61;80.66;98292.86;105371;1264;62161;-25
2023/01/16 03:16:13;;;;;;;2.20;1.70;;;;;;;0.23;81.84;98290.88;105679;1254;76338;-25
2023/01/16 03:19:05;;;;;;;3.50;2.50;;;;;;;0.09;82.40;98280.34;105723;1254;76464;-25
2023/01/16 03:21:50;;;;;;;3.90;2.30;;;;;;;0.18;82.60;98271.82;105791;1254;74131;-25
2023/01/16 03:24:45;;;;;;;3.60;2.30;;;;;;;0.61;81.49;98265.86;105667;1259;61292;-25
2023/01/16 03:27:44;;;;;;;5.40;2.90;;;;;;;0.61;80.75;98268.62;105715;1259;62853;-25
2023/01/16 03:30:34;;;;;;;6.60;3.40;;;;;;;0.32;81.34;98263.77;105643;1252;75290;-25
2023/01/16 03:33:22;;;;;;;3.90;2.20;;;;;;;0.06;82.52;98259.98;105671;1259;74899;-25
2023/01/16 03:35:55;;;;;;;2.40;1.70;;;;;;;0.52;81.89;98253.67;105647;1259;75129;-24
2023/01/16 03:38:22;;;;;;;6.60;3.30;;;;;;;0.80;80.49;98249.47;105640;1252;61784;-24
2023/01/16 03:40:49;;;;;;;5.90;3.00;;;;;;;0.69;80.34;98246.30;105660;1252;61173;-24
2023/01/16 03:43:28;;;;;;;4.00;2.30;;;;;;;0.47;81.07;98242.71;105765;1254;76323;-24
2023/01/16 03:46:20;;;;;;;5.00;2.90;;;;;;;0.24;81.79;98248.48;105444;1254;75881;-24
2023/01/16 03:48:49;;;;;;;3.60;2.00;;;;;;;0.45;82.19;98247.05;105684;1259;75050;-24
2023/01/16 03:51:27;;;;;;;5.10;3.20;;;;;;;0.81;80.56;98241.04;105811;1255;62583;-24
2023/01/16 03:54:13;;;;;;;6.10;3.90;;;;;;;0.89;80.11;98241.29;105656;1260;62650;-25
2023/01/16 03:56:46;;;;;;;4.50;2.70;;;;;;;0.74;80.09;98241.43;105726;1257;75224;-24
2023/01/16 03:59:13;;;;;;;2.90;2.10;;;;;;;0.47;80.79;98249.66;105475;1259;76904;-24
2023/01/16 04:02:02;;;;;;;3.00;2.20;;;;;;;0.29;81.89;98247.72;105424;1258;75249;-24
2023/01/16 04:04:34;;;;;;;5.10;2.90;;;;;;;0.64;81.45;98243.48;105591;1254;61215;-24
2023/01/16 04:07:04;;;;;;;3.30;2.30;;;;;;;0.85;80.56;98237.23;105689;1259;63063;-24
2023/01/16 04:09:49;;;;;;;4.00;2.40;;;;;;;0.77;80.44;98233.42;105662;1254;75415;-24
2023/01/16 04:12:20;;;;;;;7.00;3.90;;;;;;;0.50;81.02;98229.91;105689;1261;75651;-24
2023/01/16 04:14:48;;;;;;;4.60;2.70;;;;;;;0.20;82.30;98225.84;105809;1258;75012;-24
2023/01/16 04:17:15;;;;;;;3.30;2.50;;;;;;;0.48;82.37;98224.17;105590;1259;61228;-24
2023/01/16 04:19:43;;;;;;;4.80;2.60;;;;;;;0.91;80.93;98221.59;105634;1252;62483;-24
2023/01/16 04:22:19;;;;;;;3.70;2.50;;;;;;;0.90;80.33;98221.09;105660;1262;75277;-24
2023/01/16 04:24:46;;;;;;;5.50;3.10;;;;;;;0.62;80.90;98221.73;105722;1259;76673;-24
2023/01/16 04:27:13;;;;;;;6.00;3.50;;;;;;;0.37;81.99;98223.04;105833;1255;75704;-26
2023/01/16 04:29:40;;;;;;;3.60;2.50;;;;;;;0.24;82.47;98222.53;105817;1256;62378;-24
2023/01/16 04:32:06;;;;;;;3.60;3.20;;;;;;;0.48;82.34;98216.16;105869;1254;61105;-24
2023/01/16 04:34:33;;;;;;;6.20;3.60;;;;;;;0.67;81.78;98216.51;105801;1254;76390;-25
2023/01/16 04:37:00;;;;;;;8.40;3.90;;;;;;;0.55;81.89;98214.44;105814;1256;74442;-25
2023/01/16 04:39:27;;;;;;;6.60;4.20;;;;;;;0.34;82.32;98213.48;105563;1254;74895;-25
2023/01/16 04:41:54;;;;;;;6.00;3.50;;;;;;;0.06;83.63;98218.33;105654;1254;61247;-25
2023/01/16 04:44:21;;;;;;;4.50;2.80;;;;;;;0.32;83.82;98217.30;105719;1257;62510;-25
2023/01/16 04:46:48;;;;;;;3.90;2.90;;;;;;;0.61;82.29;98218.35;105643;1253;74241;-25
2023/01/16 04:49:15;;;;;;;12.70;5.40;;;;;;;0.48;82.28;98211.90;105673;1254;76932;-25
2023/01/16 04:51:42;;;;;;;6.30;2.80;;;;;;;0.31;82.99;98214.31;105792;1254;75087;-25
2023/01/16 04:54:13;;;;;;;5.00;2.90;;;;;;;0.21;83.35;98216.39;105860;1257;62121;-25
2023/01/16 04:56:41;;;;;;;9.30;5.30;;;;;;;0.50;83.12;98217.10;105675;1260;61437;-25
2023/01/16 04:59:09;;;;;;;5.80;3.40;;;;;;;0.60;82.43;98214.31;105760;1254;75019;-25
2023/01/16 05:01:37;;;;;;;5.30;3.30;;;;;;;0.52;82.43;98211.34;105717;1254;76873;-25
2023/01/16 05:04:04;;;;;;;5.90;3.80;;;;;;;0.34;82.86;98210.42;105657;1256;75367;-25
2023/01/16 05:06:32;;;;;;;7.00;4.00;;;;;;;0.26;83.48;98215.08;105669;1254;63398;-25
2023/01/16 05:08:59;;;;;;;8.10;4.30;;;;;;;0.57;83.01;98214.14;105616;1254;61838;-25
2023/01/16 05:11:27;;;;;;;4.90;3.20;;;;;;;0.65;82.32;98211.14;105457;1259;75288;-25
2023/01/16 05:13:53;;;;;;;7.50;4.10;;;;;;;0.62;82.23;98214.07;105547;1258;76787;-24
2023/01/16 05:16:20;;;;;;;7.50;3.90;;;;;;;0.42;82.51;98212.04;105735;1256;74908;-25
2023/01/16 05:18:47;;;;;;;4.30;3.20;;;;;;;0.34;83.48;98210.73;105707;1257;62637;-25
2023/01/16 05:21:14;;;;;;;6.80;3.60;;;;;;;0.77;82.53;98206.96;105586;1253;63114;-25
2023/01/16 05:23:41;;;;;;;6.20;4.90;;;;;;;0.84;81.64;98203.30;105587;1254;75881;-25
2023/01/16 05:26:08;;;;;;;2.90;1.90;;;;;;;0.61;82.09;98204.88;105671;1257;76791;-25
2023/01/16 05:28:36;;;;;;;8.70;4.80;;;;;;;0.38;82.75;98203.19;105674;1259;74909;-25
2023/01/16 05:31:03;;;;;;;5.80;3.50;;;;;;;0.27;83.88;98204.59;105655;1254;62310;-25
2023/01/16 05:33:30;;;;;;;8.10;4.50;;;;;;;0.74;82.93;98207.61;105805;1256;62889;-25
2023/01/16 05:35:57;;;;;;;8.60;4.90;;;;;;;0.92;81.73;98200.30;105666;1260;74987;-26
2023/01/16 05:38:24;;;;;;;6.20;4.00;;;;;;;0.77;81.83;98203.52;105656;1256;76848;-25
2023/01/16 05:40:51;;;;;;;7.30;3.60;;;;;;;0.60;82.11;98202.02;105738;1257;75275;-25
2023/01/16 05:43:18;;;;;;;5.80;3.70;;;;;;;0.30;83.29;98198.48;105812;1254;61796;-25
2023/01/16 05:45:45;;;;;;;8.30;4.60;;;;;;;0.47;83.83;98197.27;105760;1254;61747;-25
2023/01/16 05:48:12;;;;;;;8.10;4.50;;;;;;;0.79;82.48;98191.26;105562;1254;74257;-25
2023/01/16 05:50:39;;;;;;;7.80;4.20;;;;;;;0.67;82.53;98188.70;105696;1252;75455;-25
2023/01/16 05:53:06;;;;;;;6.70;2.70;;;;;;;0.45;83.23;98189.67;105845;1257;74164;-25
2023/01/16 05:55:44;;;;;;;13.60;7.10;;;;;;;0.25;84.08;98190.73;105541;1254;61046;-25
2023/01/16 05:58:12;;;;;;;7.10;3.90;;;;;;;0.56;83.69;98188.04;105743;1258;62546;-25
2023/01/16 06:00:39;;;;;;;6.80;4.50;;;;;;;0.83;82.68;98178.91;105663;1254;76552;-25
2023/01/16 06:03:06;;;;;;;4.70;3.30;;;;;;;0.72;82.34;98178.98;105882;1257;76688;-25
2023/01/16 06:05:34;;;;;;;12.20;4.20;;;;;;;0.54;82.98;98183.20;105700;1254;72872;-25
2023/01/16 06:08:01;;;;;;;4.30;2.90;;;;;;;0.32;83.64;98181.17;105692;1253;61227;-25
2023/01/16 06:10:28;;;;;;;6.40;3.60;;;;;;;0.54;83.76;98178.43;105836;1256;62657;-25
2023/01/16 06:12:55;;;;;;;9.40;4.90;;;;;;;0.99;82.29;98174.41;105848;1256;75029;-25
2023/01/16 06:15:22;;;;;;;9.00;4.60;;;;;;;0.95;81.65;98181.14;105861;1254;75930;-25
2023/01/16 06:17:52;;;;;;;11.00;6.00;;;;;;;0.70;82.00;98178.75;105714;1254;75122;-25
2023/01/16 06:20:19;;;;;;;8.50;5.20;;;;;;;0.37;83.46;98186.52;105678;1255;62037;-25
2023/01/16 06:22:46;;;;;;;8.20;4.80;;;;;;;0.31;83.95;98181.38;105654;1257;62745;-25
2023/01/16 06:25:13;;;;;;;8.90;5.00;;;;;;;0.66;83.58;98175.91;105836;1254;76430;-25
2023/01/16 06:27:40;;;;;;;6.00;3.50;;;;;;;0.94;82.36;98176.27;105806;1255;76804;-25
2023/01/16 06:30:08;;;;;;;10.40;4.30;;;;;;;0.71;82.46;98170.17;105839;1254;74143;-26
2023/01/16 06:32:34;;;;;;;9.30;4.30;;;;;;;0.60;82.81;98167.85;105635;1267;61214;-25
2023/01/16 06:35:01;;;;;;;7.80;4.60;;;;;;;0.49;83.01;98174.28;105675;1254;61585;-25
2023/01/16 06:37:28;;;;;;;9.50;5.20;;;;;;;0.69;83.04;98170.64;105614;1255;75303;-25
2023/01/16 06:39:58;;;;;;;4.90;4.00;;;;;;;0.97;82.13;98173.52;105695;1256;75811;-25
2023/01/16 06:42:25;;;;;;;9.60;5.60;;;;;;;0.95;81.65;98175.48;105645;1254;72955;-25
2023/01/16 06:44:52;;;;;;;8.70;5.40;;;;;;;0.81;81.93;98178.55;105470;1258;61154;-25
2023/01/16 06:47:19;;;;;;;10.60;4.50;;;;;;;0.55;82.74;98188.30;105773;1256;62892;-25
2023/01/16 06:49:46;;;;;;;7.40;4.30;;;;;;;0.65;83.16;98190.80;105586;1259;75961;-25
2023/01/16 06:52:13;;;;;;;9.50;5.20;;;;;;;1.03;82.16;98190.83;105482;1254;75513;-25
2023/01/16 06:54:39;;;;;;;9.20;4.50;;;;;;;1.14;81.37;98188.14;105579;1257;75165;-25
2023/01/16 06:57:06;;;;;;;8.40;4.30;;;;;;;0.89;81.74;98187.84;105655;1254;62093;-25
2023/01/16 06:59:33;;;;;;;8.70;4.50;;;;;;;0.72;82.34;98188.56;105718;1256;61691;-25
2023/01/16 07:02:00;;;;;;;8.90;5.40;;;;;;;0.60;82.90;98191.09;105858;1266;75983;-25
2023/01/16 07:04:27;;;;;;;10.80;5.90;;;;;;;0.94;82.47;98192.50;105732;1257;75818;-25
2023/01/16 07:06:54;;;;;;;15.70;6.60;;;;;;;1.07;81.57;98191.98;105663;1255;74536;-25
2023/01/16 07:09:30;;;;;;;11.70;5.00;;;;;;;0.99;81.67;98188.59;105806;1254;61781;-25
2023/01/16 07:11:57;;;;;;;13.30;6.50;;;;;;;0.75;82.09;98185.65;105802;1257;62472;-25
2023/01/16 07:22:45;;;;;;;10.60;4.80;;;;;;;1.05;81.62;98196.20;105603;1258;61717;-25
2023/01/16 07:25:15;;;;;;;10.00;5.70;;;;;;;0.72;82.51;98191.30;105668;1253;61681;-25
2023/01/16 07:27:42;;;;;;;9.10;5.70;;;;;;;0.54;83.26;98193.29;105631;1259;76169;-25
2023/01/16 07:30:10;;;;;;;6.80;4.20;;;;;;;0.79;83.33;98194.85;105553;1254;75800;-25
2023/01/16 07:32:37;;;;;;;6.00;3.60;;;;;;;1.02;82.31;98195.30;105610;1260;74079;-26
2023/01/16 07:35:05;;;;;;;12.30;4.70;;;;;;;0.97;82.14;98195.73;105659;1254;61100;-25
2023/01/16 07:37:32;;;;;;;10.60;5.40;;;;;;;0.76;82.62;98198.09;105664;1261;62518;-25
2023/01/16 07:40:00;;;;;;;8.80;4.70;;;;;;;0.50;83.77;98198.64;105717;1254;76246;-25
2023/01/16 07:42:27;;;;;;;12.00;6.60;;;;;;;0.71;83.64;98193.40;105669;1260;76686;-25
2023/01/16 07:44:54;;;;;;;13.70;7.10;;;;;;;1.00;82.67;98198.32;105588;1257;74865;-25
2023/01/16 07:47:21;;;;;;;10.00;5.90;;;;;;;0.96;82.45;98198.01;105487;1260;61565;-25
2023/01/16 07:49:48;;;;;;;10.90;6.00;;;;;;;0.89;82.52;98198.22;105855;1257;61691;-25
2023/01/16 07:52:16;;;;;;;8.70;5.00;;;;;;;0.75;82.84;98202.09;105591;1259;74516;-25
2023/01/16 07:54:44;;;;;;;9.00;5.50;;;;;;;0.62;83.80;98202.10;105586;1260;76785;-25
2023/01/16 07:57:10;;;;;;;9.30;4.90;;;;;;;1.04;82.96;98200.45;105859;1256;74934;-25
2023/01/16 07:59:37;;;;;;;8.70;4.00;;;;;;;1.12;82.04;98204.82;105636;1254;61787;-25
2023/01/16 08:02:04;;;;;;;8.00;5.00;;;;;;;1.02;82.26;98202.12;105605;1260;61755;-25
2023/01/16 08:04:31;;;;;;;7.60;4.00;;;;;;;0.79;82.86;98200.18;109474;1254;75159;-24
2023/01/16 08:06:58;;;;;;;11.50;5.50;;;;;;;0.67;83.42;98201.29;109438;1254;76343;-24
2023/01/16 08:09:25;;;;;;;11.90;6.20;;;;;;;0.90;83.54;98197.18;109276;1253;73963;-24
2023/01/16 08:11:52;;;;;;;11.40;5.90;;;;;;;1.19;82.38;98194.52;109551;1254;61082;-24
2023/01/16 08:14:19;;;;;;;6.90;4.60;;;;;;;1.15;82.08;98195.08;109423;1254;61219;-25
2023/01/16 08:16:46;;;;;;;10.40;5.60;;;;;;;0.94;82.57;98195.73;109501;1254;74946;-24
2023/01/16 08:19:13;;;;;;;19.00;6.10;;;;;;;0.75;83.40;98195.27;109495;1253;74688;-24
2023/01/16 08:21:40;;;;;;;14.40;6.60;;;;;;;0.82;83.88;98190.60;109611;1253;73516;-24
2023/01/16 08:24:07;;;;;;;7.80;4.80;;;;;;;1.21;82.80;98192.39;109493;1255;61350;-25
2023/01/16 08:26:34;;;;;;;10.80;5.20;;;;;;;1.19;82.20;98192.98;109553;1254;62078;-24
2023/01/16 08:29:02;;;;;;;11.00;5.50;;;;;;;1.12;82.22;98186.73;109539;1252;75849;-24
2023/01/16 08:31:29;;;;;;;13.50;6.40;;;;;;;0.87;82.90;98190.65;109593;1253;76517;-24
2023/01/16 08:33:56;;;;;;;14.40;5.90;;;;;;;0.88;83.38;98188.36;109471;1254;75258;-24
2023/01/16 08:36:23;;;;;;;15.00;7.10;;;;;;;1.35;82.25;98186.06;109552;1256;62417;-24
2023/01/16 08:38:50;;;;;;;12.60;6.10;;;;;;;1.50;81.07;98181.64;109562;1253;62013;-24
2023/01/16 08:52:35;;;;;;;8.30;4.80;;;;;;;1.57;81.39;98180.73;109583;1254;62092;-24
2023/01/16 08:55:03;;;;;;;8.00;5.30;;;;;;;1.58;80.63;98176.20;109441;1252;74669;-24
2023/01/16 08:57:30;;;;;;;8.00;4.50;;;;;;;1.30;81.12;98170.64;109471;1254;75221;-24
2023/01/16 08:59:57;;;;;;;13.30;7.10;;;;;;;1.23;81.56;98170.55;109459;1254;75066;-24
2023/01/16 09:02:25;;;;;;;10.50;4.50;;;;;;;1.09;82.00;98170.99;109442;1254;61634;-25
2023/01/16 09:04:54;;;;;;;7.00;4.30;;;;;;;1.26;82.00;98165.58;109295;1254;62191;-24
2023/01/16 09:07:21;;;;;;;10.20;5.30;;;;;;;1.78;80.88;98165.83;109538;1254;76215;-24
2023/01/16 09:09:48;;;;;;;12.30;6.10;;;;;;;1.92;79.75;98161.23;109378;1254;76688;-24
2023/01/16 09:15:01;;;;;;;8.20;4.80;;;;;;;1.50;80.13;98161.64;109373;1254;61848;-24
2023/01/16 09:17:27;;;;;;;6.70;3.80;;;;;;;1.25;81.15;98161.70;109515;1253;61271;-26
2023/01/16 09:19:54;;;;;;;9.70;5.10;;;;;;;1.29;81.63;98163.55;109518;1254;73462;-25
2023/01/16 09:22:22;;;;;;;9.00;4.60;;;;;;;1.76;80.56;98157.54;109570;1252;76244;-25
2023/01/16 09:24:49;;;;;;;14.70;6.30;;;;;;;1.89;79.46;98157.30;109452;1254;74814;-25
2023/01/16 09:27:18;;;;;;;9.30;4.10;;;;;;;1.75;79.56;98155.92;109326;1253;61476;-25
2023/01/16 09:29:45;;;;;;;9.80;5.20;;;;;;;1.52;80.08;98149.52;109380;1254;61777;-25
2023/01/16 09:32:12;;;;;;;11.00;6.00;;;;;;;1.25;80.77;98147.86;109392;1253;75840;-25
2023/01/16 09:34:40;;;;;;;9.00;4.60;;;;;;;1.22;81.51;98145.61;109399;1252;76110;-25
2023/01/16 09:37:08;;;;;;;11.40;5.80;;;;;;;1.60;80.69;98143.79;109554;1253;74624;-25
2023/01/16 09:39:35;;;;;;;10.00;5.30;;;;;;;1.69;80.00;98144.29;109418;1258;62453;-25
2023/01/16 09:44:50;;;;;;;10.50;5.70;;;;;;;1.35;80.85;98134.12;109446;1253;75884;-25
2023/01/16 09:47:20;;;;;;;8.10;4.00;;;;;;;1.16;81.29;98128.52;109509;1254;76595;-25
2023/01/16 09:49:49;;;;;;;10.20;5.50;;;;;;;1.46;81.53;98127.34;109243;1253;74570;-25
2023/01/16 10:00:50;;;;;;;6.40;4.10;;;;;;;1.25;80.88;98112.48;109353;1254;76487;-25
2023/01/16 10:03:17;;;;;;;10.20;5.20;;;;;;;1.18;81.79;98110.13;109556;1254;73638;-25
2023/01/16 10:05:49;;;;;;;11.60;5.70;;;;;;;1.63;80.97;98109.06;109288;1252;61362;-25
2023/01/16 10:08:19;;;;;;;10.70;6.50;;;;;;;1.87;79.73;98113.77;109319;1257;61040;-25
2023/01/16 10:10:59;;;;;;;10.60;6.10;;;;;;;1.76;79.51;98112.73;109323;1254;75746;-25
2023/01/16 10:13:29;;;;;;;10.40;5.80;;;;;;;1.56;79.86;98113.55;109206;1253;74825;-24
2023/01/16 10:16:12;;;;;;;10.40;5.90;;;;;;;1.35;80.51;98108.48;109397;1254;73616;-24
2023/01/16 10:19:17;;;;;;;13.60;7.20;;;;;;;1.23;81.44;98108.14;109292;1254;63012;-26
2023/01/16 10:22:05;;;;;;;14.50;7.90;;;;;;;1.89;80.30;98103.73;108887;1260;61387;-25
2023/01/16 10:24:45;;;;;;;18.70;10.00;;;;;;;2.04;79.25;98103.36;108959;1260;75883;-25
2023/01/16 10:27:34;;;;;;;12.80;8.10;;;;;;;1.94;79.25;98095.73;108923;1260;76385;-25
2023/01/16 10:30:05;;;;;;;12.00;7.10;;;;;;;1.72;79.84;98086.11;108908;1264;75073;-25
2023/01/16 10:32:40;;;;;;;11.40;6.80;;;;;;;1.49;80.54;98090.89;108889;1264;60621;-25
2023/01/16 10:35:27;;;;;;;16.40;7.90;;;;;;;1.27;81.49;98093.88;108789;1259;61399;-25
2023/01/16 10:37:54;;;;;;;10.80;6.60;;;;;;;1.65;80.97;98089.74;108892;1260;73992;-25
2023/01/16 10:40:25;;;;;;;13.00;6.70;;;;;;;1.93;79.88;98084.27;108851;1259;75000;-25
2023/01/16 10:51:27;;;;;;;15.50;8.30;;;;;;;1.39;81.72;98083.75;108931;1260;75766;-25
2023/01/16 10:53:54;;;;;;;13.20;6.90;;;;;;;1.83;80.70;98086.44;108965;1260;75335;-25
2023/01/16 10:56:21;;;;;;;14.10;7.50;;;;;;;1.99;79.72;98082.07;109196;1254;74841;-25
2023/01/16 10:58:48;;;;;;;19.40;7.80;;;;;;;1.82;79.48;98068.55;109105;1254;62133;-25
2023/01/16 11:01:16;;;;;;;11.90;7.40;;;;;;;1.57;80.44;98066.28;109279;1254;62650;-26
2023/01/16 11:03:45;;;;;;;13.00;6.30;;;;;;;1.33;81.22;98064.95;109146;1254;76035;-25
2023/01/16 11:06:43;;;;;;;13.20;6.90;;;;;;;1.41;81.63;98062.23;109194;1254;75189;-25
2023/01/16 11:09:13;;;;;;;9.10;5.50;;;;;;;1.94;80.48;98057.76;109074;1254;74805;-25
2023/01/16 11:20:20;;;;;;;17.10;7.00;;;;;;;1.32;81.52;98035.45;109118;1254;75429;-25
2023/01/16 11:22:50;;;;;;;9.90;5.20;;;;;;;1.75;81.17;98027.02;109147;1254;74816;-25
2023/01/16 11:25:18;;;;;;;9.90;5.80;;;;;;;2.02;79.76;98022.61;109097;1256;61121;-25
2023/01/16 11:27:46;;;;;;;13.30;6.40;;;;;;;1.94;79.50;98023.11;109364;1254;62081;-25
2023/01/16 11:30:19;;;;;;;11.90;7.30;;;;;;;1.77;79.97;98022.29;109082;1254;74627;-25
2023/01/16 11:32:48;;;;;;;13.70;7.30;;;;;;;1.57;80.60;98025.75;109128;1254;76171;-25
2023/01/16 11:35:17;;;;;;;10.20;5.60;;;;;;;1.46;81.27;98020.77;109095;1254;75171;-25
2023/01/16 11:37:45;;;;;;;13.20;7.50;;;;;;;1.85;80.99;98022.51;109091;1254;60553;-25
2023/01/16 11:40:22;;;;;;;19.30;9.00;;;;;;;2.13;79.72;98020.06;109143;1254;60080;-25
2023/01/16 11:48:28;;;;;;;24.10;10.50;;;;;;;1.63;80.13;98025.55;109100;1254;73695;-26
2023/01/16 11:50:56;;;;;;;19.90;8.90;;;;;;;1.44;80.97;98019.70;109098;1254;61656;-26
2023/01/16 11:53:23;;;;;;;12.90;7.10;;;;;;;1.74;81.08;98020.45;109223;1254;61831;-26
2023/01/16 11:56:02;;;;;;;20.20;9.00;;;;;;;2.11;79.72;98014.76;109128;1254;75847;-23
2023/01/16 11:58:45;;;;;;;19.10;9.30;;;;;;;2.02;79.17;98018.36;109134;1255;76453;-25
2023/01/16 12:01:14;;;;;;;17.80;8.10;;;;;;;1.87;79.65;98014.13;109127;1257;75056;-25
2023/01/16 12:03:54;;;;;;;12.40;7.20;;;;;;;1.68;80.26;98016.52;109110;1255;60633;-24
2023/01/16 12:06:37;;;;;;;12.80;7.10;;;;;;;1.42;80.97;98012.78;109120;1262;62345;-24
2023/01/16 12:09:37;;;;;;;16.30;7.80;;;;;;;1.74;80.95;98005.88;109089;1256;73634;-24
2023/01/16 12:15:59;;;;;;;15.00;8.10;;;;;;;2.00;79.38;97994.67;109103;1256;74604;-24
2023/01/16 12:18:32;;;;;;;16.30;8.50;;;;;;;1.71;80.04;97990.48;108708;1262;61362;-24
2023/01/16 12:21:00;;;;;;;;;;;;;;;1.53;80.90;97984.93;108734;1263;62403;-24
2023/01/16 12:23:52;;;;;;;15.80;6.90;;;;;;;1.46;81.51;97984.98;109047;1256;75838;-24
2023/01/16 12:26:44;;;;;;;15.40;7.70;;;;;;;2.08;80.73;97988.16;109300;1256;76027;-25
2023/01/16 12:29:26;;;;;;;16.70;7.70;;;;;;;2.33;79.38;97984.59;109090;1256;74488;-25
2023/01/16 12:32:01;;;;;;;16.30;8.30;;;;;;;2.17;79.00;97983.52;109083;1257;62438;-25
2023/01/16 12:34:43;;;;;;;15.10;8.00;;;;;;;1.97;79.48;97978.96;109159;1257;60236;-26
2023/01/16 12:37:22;;;;;;;16.90;8.60;;;;;;;1.69;80.07;97985.14;109159;1257;73852;-26
2023/01/16 12:40:11;;;;;;;15.40;7.60;;;;;;;1.53;80.95;97981.02;109116;1256;76586;-26
2023/01/16 12:45:48;;;;;;;18.30;9.50;;;;;;;2.43;78.81;97976.40;109069;1257;61420;-24
2023/01/16 12:48:38;;;;;;;19.30;8.30;;;;;;;2.31;78.49;97971.65;109109;1257;62725;-25
2023/01/16 12:51:21;;;;;;;18.10;8.70;;;;;;;2.07;79.04;97963.95;109068;1256;75876;-25
2023/01/16 12:54:03;;;;;;;20.80;9.40;;;;;;;1.76;79.79;97957.67;109191;1256;75229;-25
2023/01/16 12:56:43;;;;;;;15.00;7.60;;;;;;;1.51;80.76;97947.22;109198;1256;73806;-25